2J3

Louisville Municipal Airport

Louisville, Georgia, USA
METAR K2J3 221430Z AUTO 00000KT 10SM SCT048 27/19 A3014 RMK AO2 T02650188
Observed Flight Rules
Sep-22 @ 14:30 UTC (36 minutes ago) Visual Flight Rules
Visibility Clouds
10 miles
Temperatures Readings
Current 27°C / 81°F
Dewpoint 19°C / 66°F
Humidity 62%
Altimeter 30.14" Hg
Pressure 1021 hPa
Elevation 100
METAR K2J3 221430Z AUTO 00000KT 10SM SCT048 27/19 A3014 RMK AO2 T02650188
Observed Flight Rules
Sep-22 @ 14:30 UTC
(36 minutes ago)
VFR
Clouds
Temperature Dewpoint
27°C / 81°F 19°C / 66°F
Humidity Altimeter Pressure
62% 30.14" Hg 1021 hPa